Terminal Aerodrome Forecast
Issued by NWS

Home | Current Version | Previous Version | Text Only | Print | Product List | Glossary On
Versions: 1 2 3 4 5 6 7 8 9 10 11 12 13
906
FTUS46 KHNX 241740
TAFFAT
TAF
KFAT 241740Z 2418/2518 08005KT P6SM FEW030 SCT150
     FM242000 28005KT P6SM BKN250
     FM250600 00000KT 4SM HZ BR FEW250
     FM251200 00000KT 2SM BR BKN012=

USA.gov is the U.S. government's official web portal to all federal, state and local government web resources and services.